Terminal Aerodrome Forecast
Issued by NWS Sterling, VA

Home | Current Version | Previous Version | Text Only | Print | Product List | Glossary On
Versions: 1 2 3 4 5 6 7 8 9 10 11 12 13 14 15 16 17 18 19 20 21 22 23
000
FTUS41 KLWX 282300
TAFBWI
TAF
KBWI 282327Z 2900/3006 30012G20KT P6SM BKN060
      TEMPO 2900/2901 VRB30KT 5SM -SHRA BKN040
     FM290200 32009KT P6SM BKN090
     FM290800 32007KT P6SM SCT090=

USA.gov is the U.S. government's official web portal to all federal, state and local government web resources and services.